createdAt,value
2018-10-01T00:00:20.745Z,12.7
2018-10-01T00:01:20.881Z,12.8
2018-10-01T00:02:20.805Z,12.8
2018-10-01T00:03:21.134Z,12.8
2018-10-01T00:04:21.320Z,12.8
2018-10-01T00:05:24.215Z,12.8
2018-10-01T00:06:24.117Z,12.7
2018-10-01T00:07:24.020Z,12.7
2018-10-01T00:08:24.365Z,12.7
2018-10-01T00:09:24.278Z,12.8
2018-10-01T00:10:24.187Z,12.8
2018-10-01T00:11:24.321Z,12.8
2018-10-01T00:12:24.240Z,12.8
2018-10-01T00:13:24.149Z,12.8
2018-10-01T00:14:24.052Z,12.8
2018-10-01T00:15:23.966Z,12.8
2018-10-01T00:16:23.908Z,12.9
2018-10-01T00:17:23.847Z,12.8
2018-10-01T00:18:24.193Z,12.9
2018-10-01T00:19:24.101Z,12.8
2018-10-01T00:20:24.010Z,12.8
2018-10-01T00:21:23.911Z,12.8
2018-10-01T00:22:23.831Z,12.9
2018-10-01T00:23:23.740Z,12.9
2018-10-01T00:24:23.653Z,12.8
2018-10-01T00:25:23.565Z,12.8
2018-10-01T00:26:23.463Z,12.8
2018-10-01T00:27:23.387Z,12.8
2018-10-01T00:28:24.734Z,12.8
2018-10-01T00:29:24.632Z,12.9
2018-10-01T00:30:24.537Z,12.9
2018-10-01T00:31:24.437Z,12.9
2018-10-01T00:32:24.359Z,12.9
2018-10-01T00:33:24.263Z,12.9
2018-10-01T00:34:24.162Z,13
2018-10-01T00:35:24.071Z,13
2018-10-01T00:36:23.971Z,13
2018-10-01T00:37:23.895Z,12.9
2018-10-01T00:38:24.427Z,12.9
2018-10-01T00:39:24.607Z,12.9
2018-10-01T00:40:24.528Z,12.9
2018-10-01T00:41:24.432Z,13
2018-10-01T00:42:24.358Z,12.9
2018-10-01T00:43:24.304Z,12.9
2018-10-01T00:44:24.236Z,13
2018-10-01T00:45:24.150Z,13
2018-10-01T00:46:24.045Z,12.9
2018-10-01T00:47:23.965Z,12.9
2018-10-01T00:48:24.315Z,12.9
2018-10-01T00:49:24.219Z,12.9
2018-10-01T00:50:24.127Z,12.9
2018-10-01T00:51:24.025Z,12.9
2018-10-01T00:52:23.949Z,12.9
2018-10-01T00:53:23.841Z,12.9
2018-10-01T00:54:23.773Z,12.9
2018-10-01T00:55:23.675Z,12.9
2018-10-01T00:56:23.585Z,12.9
2018-10-01T00:57:23.497Z,12.9
2018-10-01T00:58:23.856Z,12.9
2018-10-01T00:59:23.770Z,12.9
2018-10-01T01:00:23.677Z,13
2018-10-01T01:01:23.589Z,13
2018-10-01T01:02:23.515Z,13
2018-10-01T01:03:23.417Z,12.9
2018-10-01T01:04:23.353Z,12.9
2018-10-01T01:05:23.261Z,12.9
2018-10-01T01:06:23.167Z,12.9
2018-10-01T01:07:23.093Z,12.8
2018-10-01T01:08:23.439Z,12.9
2018-10-01T01:09:23.582Z,12.9
2018-10-01T01:10:23.497Z,12.9
2018-10-01T01:11:23.409Z,12.9
2018-10-01T01:12:23.323Z,12.9
2018-10-01T01:13:23.247Z,12.9
2018-10-01T01:14:23.155Z,12.9
2018-10-01T01:15:23.061Z,12.9
2018-10-01T01:16:22.975Z,12.8
2018-10-01T01:17:22.876Z,12.8
2018-10-01T01:18:23.215Z,12.9
2018-10-01T01:19:23.367Z,12.9
2018-10-01T01:20:23.257Z,12.8
2018-10-01T01:21:23.167Z,12.7
2018-10-01T01:22:23.064Z,12.7
2018-10-01T01:23:22.991Z,12.7
2018-10-01T01:24:22.906Z,12.6
2018-10-01T01:25:22.823Z,12.6
2018-10-01T01:26:22.714Z,12.6
2018-10-01T01:27:22.633Z,12.6
2018-10-01T01:28:22.966Z,12.6
2018-10-01T01:29:22.879Z,12.5
2018-10-01T01:30:22.798Z,12.6
2018-10-01T01:31:22.707Z,12.6
2018-10-01T01:32:22.640Z,12.6
2018-10-01T01:33:22.588Z,12.6
2018-10-01T01:34:22.509Z,12.6
2018-10-01T01:35:22.436Z,12.5
2018-10-01T01:36:22.339Z,12.6
2018-10-01T01:37:22.255Z,12.5
2018-10-01T01:38:22.611Z,12.5
2018-10-01T01:39:22.510Z,12.5
2018-10-01T01:40:22.452Z,12.5
2018-10-01T01:41:22.575Z,12.5
2018-10-01T01:42:22.486Z,12.5
2018-10-01T01:43:22.613Z,12.5
2018-10-01T01:44:22.584Z,12.5
2018-10-01T01:45:22.526Z,12.5
2018-10-01T01:46:22.422Z,12.5
2018-10-01T01:47:22.331Z,12.6
2018-10-01T01:48:22.677Z,12.6
2018-10-01T01:49:22.583Z,12.5
2018-10-01T01:50:22.491Z,12.5
2018-10-01T01:51:22.477Z,12.5
2018-10-01T01:52:22.383Z,12.5
2018-10-01T01:53:22.301Z,12.4
2018-10-01T01:54:22.203Z,12.4
2018-10-01T01:55:22.098Z,12.5
2018-10-01T01:56:22.005Z,12.5
2018-10-01T01:57:21.925Z,12.5
2018-10-01T01:58:22.283Z,12.5
2018-10-01T01:59:22.194Z,12.5
2018-10-01T02:00:22.104Z,12.6
2018-10-01T02:01:22.028Z,12.5
2018-10-01T02:02:21.944Z,12.5
2018-10-01T02:03:21.851Z,12.5
2018-10-01T02:04:21.760Z,12.5
2018-10-01T02:05:21.660Z,12.4
2018-10-01T02:06:21.570Z,12.4
2018-10-01T02:07:21.497Z,12.5
2018-10-01T02:08:21.861Z,12.5
2018-10-01T02:09:21.770Z,12.5
2018-10-01T02:10:21.669Z,12.5
2018-10-01T02:11:21.575Z,12.5
2018-10-01T02:12:21.491Z,12.5
2018-10-01T02:13:21.397Z,12.5
2018-10-01T02:14:21.305Z,12.5
2018-10-01T02:15:21.264Z,12.5
2018-10-01T02:16:21.169Z,12.5
2018-10-01T02:17:21.108Z,12.5
2018-10-01T02:18:21.468Z,12.5
2018-10-01T02:19:21.369Z,12.5
2018-10-01T02:20:21.347Z,12.5
2018-10-01T02:21:21.252Z,12.5
2018-10-01T02:22:21.148Z,12.5
2018-10-01T02:23:21.087Z,12.5
2018-10-01T02:24:20.997Z,12.5
2018-10-01T02:25:20.896Z,12.5
2018-10-01T02:26:20.829Z,12.5
2018-10-01T02:27:20.739Z,12.5
2018-10-01T02:38:18.975Z,12.9
2018-10-01T02:39:18.885Z,12.8
2018-10-01T02:40:18.852Z,12.8
2018-10-01T02:41:18.763Z,12.8
2018-10-01T02:42:18.665Z,12.7
2018-10-01T02:43:18.595Z,12.7
2018-10-01T02:44:18.530Z,12.7
2018-10-01T02:45:18.508Z,12.7
2018-10-01T02:46:18.444Z,12.6
2018-10-01T02:47:18.374Z,12.6
2018-10-01T02:48:19.612Z,12.6
2018-10-01T02:49:19.518Z,12.6
2018-10-01T02:50:19.477Z,12.6
2018-10-01T02:51:19.386Z,12.6
2018-10-01T02:52:19.310Z,12.5
2018-10-01T02:53:19.207Z,12.5
2018-10-01T02:54:19.130Z,12.5
2018-10-01T02:55:19.038Z,12.4
2018-10-01T02:56:18.973Z,12.4
2018-10-01T02:57:18.884Z,12.4
2018-10-01T02:58:19.459Z,12.4
2018-10-01T02:59:19.370Z,12.5
2018-10-01T03:00:19.294Z,12.5
2018-10-01T03:01:19.225Z,12.5
2018-10-01T03:02:19.155Z,12.5
2018-10-01T03:03:19.078Z,12.5
2018-10-01T03:04:18.990Z,12.5
2018-10-01T03:05:18.890Z,12.5
2018-10-01T03:06:18.801Z,12.5
2018-10-01T03:07:18.717Z,12.5
2018-10-01T03:08:19.051Z,12.5
2018-10-01T03:09:18.971Z,12.5
2018-10-01T03:10:18.881Z,12.5
2018-10-01T03:11:18.800Z,12.5
2018-10-01T03:12:19.046Z,12.5
2018-10-01T03:13:19.317Z,12.5
2018-10-01T03:14:19.229Z,12.4
2018-10-01T03:15:19.145Z,12.4
2018-10-01T03:16:19.067Z,12.4
2018-10-01T03:17:18.986Z,12.4
2018-10-01T03:18:19.335Z,12.4
2018-10-01T03:19:19.241Z,12.4
2018-10-01T03:20:19.167Z,12.3
2018-10-01T03:21:19.379Z,12.3
2018-10-01T03:22:19.700Z,12.3
2018-10-01T03:23:19.610Z,12.3
2018-10-01T03:24:19.748Z,12.3
2018-10-01T03:25:19.641Z,12.2
2018-10-01T03:26:19.544Z,12.2
2018-10-01T03:27:19.466Z,12.2
2018-10-01T03:28:19.831Z,12.2
2018-10-01T03:29:19.752Z,12.2
2018-10-01T03:30:19.688Z,12.2
2018-10-01T03:31:19.629Z,12.2
2018-10-01T03:32:19.569Z,12.3
2018-10-01T03:33:19.483Z,12.3
2018-10-01T03:34:19.424Z,12.3
2018-10-01T03:35:19.342Z,12.3
2018-10-01T03:36:19.239Z,12.2
2018-10-01T03:37:19.157Z,12.3
2018-10-01T03:58:18.918Z,12.7
2018-10-01T03:59:18.828Z,12.6
2018-10-01T04:00:18.747Z,12.6
2018-10-01T04:01:18.655Z,12.5
2018-10-01T04:02:18.587Z,12.5
2018-10-01T04:03:18.493Z,12.4
2018-10-01T04:04:18.457Z,12.4
2018-10-01T04:05:18.592Z,12.3
2018-10-01T04:06:18.533Z,12.3
2018-10-01T04:07:18.473Z,12.2
2018-10-01T04:08:18.813Z,12.2
2018-10-01T04:38:14.932Z,12.8
2018-10-01T04:39:14.893Z,12.7
2018-10-01T04:40:14.805Z,12.6
2018-10-01T04:41:14.730Z,12.5
2018-10-01T04:42:14.661Z,12.5
2018-10-01T04:43:14.569Z,12.5
2018-10-01T04:44:14.476Z,12.4
2018-10-01T04:45:14.397Z,12.3
2018-10-01T04:46:14.287Z,12.3
2018-10-01T04:47:14.207Z,12.3
2018-10-01T04:48:14.553Z,12.4
2018-10-01T04:49:14.451Z,12.3
2018-10-01T04:50:14.347Z,12.3
2018-10-01T04:51:14.469Z,12.3
2018-10-01T04:52:14.395Z,12.2
2018-10-01T04:53:14.307Z,12.2
2018-10-01T04:54:14.217Z,12.1
2018-10-01T04:55:14.132Z,12.1
2018-10-01T04:56:14.045Z,12.1
2018-10-01T04:57:13.958Z,12.1
2018-10-01T04:58:14.798Z,12
2018-10-01T04:59:15.171Z,12
2018-10-01T05:00:15.078Z,12
2018-10-01T05:01:14.977Z,12
2018-10-01T05:02:14.913Z,12
2018-10-01T05:03:14.821Z,12
2018-10-01T05:04:14.738Z,12
2018-10-01T05:05:14.633Z,12
2018-10-01T05:06:14.930Z,11.8
2018-10-01T05:07:15.448Z,11.8
2018-10-01T05:08:15.801Z,11.8
2018-10-01T05:09:15.719Z,11.9
2018-10-01T05:10:15.622Z,11.8
2018-10-01T05:11:15.526Z,11.9
2018-10-01T05:12:15.454Z,11.8
2018-10-01T05:13:15.392Z,11.8
2018-10-01T05:14:15.306Z,11.8
2018-10-01T05:15:15.206Z,11.8
2018-10-01T05:16:15.138Z,11.8
2018-10-01T05:17:15.101Z,11.8
2018-10-01T05:18:15.466Z,11.8
2018-10-01T05:19:15.378Z,11.8
2018-10-01T05:20:15.267Z,11.8
2018-10-01T05:21:15.167Z,11.8
2018-10-01T05:22:15.068Z,11.8
2018-10-01T05:23:14.985Z,11.7
2018-10-01T05:24:14.891Z,11.7
2018-10-01T05:25:14.793Z,11.7
2018-10-01T05:26:14.697Z,11.8
2018-10-01T05:27:14.971Z,11.8
2018-10-01T05:28:16.278Z,11.8
2018-10-01T05:29:16.193Z,11.9
2018-10-01T05:30:16.109Z,11.9
2018-10-01T05:31:16.024Z,11.8
2018-10-01T05:32:15.945Z,11.8
2018-10-01T05:33:15.867Z,11.8
2018-10-01T05:34:15.778Z,11.8
2018-10-01T05:35:15.687Z,11.8
2018-10-01T05:36:15.593Z,11.8
2018-10-01T05:37:15.954Z,11.8
2018-10-01T05:58:14.334Z,12.2
2018-10-01T05:59:14.575Z,12.1
2018-10-01T06:00:14.491Z,12
2018-10-01T06:01:14.393Z,12
2018-10-01T06:02:14.308Z,12
2018-10-01T06:03:14.221Z,12
2018-10-01T06:04:14.138Z,12
2018-10-01T06:05:14.095Z,12
2018-10-01T06:06:13.996Z,12
2018-10-01T06:07:13.907Z,11.9
2018-10-01T06:08:15.291Z,12
2018-10-01T06:09:15.221Z,11.9
2018-10-01T06:10:15.137Z,11.9
2018-10-01T06:11:15.063Z,11.8
2018-10-01T06:12:14.957Z,11.8
2018-10-01T06:13:14.856Z,11.7
2018-10-01T06:14:14.768Z,11.7
2018-10-01T06:15:14.696Z,11.7
2018-10-01T06:16:14.627Z,11.6
2018-10-01T06:17:14.782Z,11.6
2018-10-01T06:18:15.177Z,11.6
2018-10-01T06:19:15.192Z,11.6
2018-10-01T06:20:15.334Z,11.5
2018-10-01T06:21:15.231Z,11.5
2018-10-01T06:22:15.136Z,11.3
2018-10-01T06:23:15.053Z,11.4
2018-10-01T06:24:14.953Z,11.4
2018-10-01T06:25:15.383Z,11.3
2018-10-01T06:26:15.844Z,11.4
2018-10-01T06:27:15.742Z,11.3
2018-10-01T06:28:16.106Z,11.4
2018-10-01T06:29:16.014Z,11.3
2018-10-01T06:30:15.948Z,11.3
2018-10-01T06:31:15.898Z,11.4
2018-10-01T06:32:15.794Z,11.3
2018-10-01T06:33:15.696Z,11.4
2018-10-01T06:34:15.600Z,11.4
2018-10-01T06:35:15.503Z,11.4
2018-10-01T06:36:15.750Z,11.4
2018-10-01T06:37:16.075Z,11.4
2018-10-01T06:38:16.422Z,11.4
2018-10-01T06:39:16.331Z,11.3
2018-10-01T06:40:16.233Z,11.3
2018-10-01T06:41:16.185Z,11.2
2018-10-01T06:42:16.417Z,11.2
2018-10-01T06:43:16.800Z,11.2
2018-10-01T06:44:19.696Z,11.3
2018-10-01T06:45:19.618Z,11.3
2018-10-01T06:46:19.530Z,11.3
2018-10-01T06:47:19.450Z,11.3
2018-10-01T07:08:17.014Z,11.8
2018-10-01T07:09:16.969Z,11.7
2018-10-01T07:10:16.896Z,11.7
2018-10-01T07:11:16.933Z,11.6
2018-10-01T07:12:17.305Z,11.7
2018-10-01T07:13:17.275Z,11.6
2018-10-01T07:14:17.226Z,11.6
2018-10-01T07:15:17.139Z,11.6
2018-10-01T07:16:17.249Z,11.6
2018-10-01T07:17:18.095Z,11.5
2018-10-01T07:18:19.422Z,11.4
2018-10-01T07:19:19.339Z,11.4
2018-10-01T07:20:19.270Z,11.4
2018-10-01T07:21:19.180Z,11.3
2018-10-01T07:22:19.128Z,11.2
2018-10-01T07:23:19.824Z,11.3
2018-10-01T07:24:20.626Z,11.3
2018-10-01T07:25:20.544Z,11.2
2018-10-01T07:26:20.462Z,11.2
2018-10-01T07:27:20.374Z,11.2
2018-10-01T07:28:20.716Z,11.2
2018-10-01T07:29:20.624Z,11.2
2018-10-01T07:30:20.527Z,11.2
2018-10-01T07:31:20.445Z,11.3
2018-10-01T07:32:20.356Z,11.3
2018-10-01T07:33:20.261Z,11.3
2018-10-01T07:34:20.159Z,11.2
2018-10-01T07:35:20.064Z,11.3
2018-10-01T07:36:19.989Z,11.3
2018-10-01T07:37:19.915Z,11.3
2018-10-01T07:38:20.277Z,11.2
2018-10-01T07:39:20.208Z,11.2
2018-10-01T07:40:20.124Z,11.2
2018-10-01T07:41:20.054Z,11.3
2018-10-01T07:42:19.984Z,11.3
2018-10-01T07:43:19.903Z,11.3
2018-10-01T07:44:19.813Z,11.3
2018-10-01T07:45:20.577Z,11.3
2018-10-01T07:46:22.256Z,11.3
2018-10-01T07:47:22.834Z,11.3
2018-10-01T07:48:23.359Z,11.3
2018-10-01T07:49:23.314Z,11.3
2018-10-01T07:50:23.213Z,11.3
2018-10-01T07:51:23.227Z,11.3
2018-10-01T07:52:23.207Z,11.3
2018-10-01T07:53:23.308Z,11.3
2018-10-01T07:54:23.545Z,11.3
2018-10-01T07:55:23.465Z,11.3
2018-10-01T07:56:23.392Z,11.3
2018-10-01T07:57:23.405Z,11.3
2018-10-01T07:58:23.930Z,11.2
2018-10-01T07:59:24.052Z,11.3
2018-10-01T08:00:24.609Z,11.3
2018-10-01T08:01:24.820Z,11.2
2018-10-01T08:02:24.898Z,11.2
2018-10-01T08:03:24.878Z,11.3
2018-10-01T08:04:24.779Z,11.3
2018-10-01T08:05:24.690Z,11.3
2018-10-01T08:06:24.640Z,11.3
2018-10-01T08:07:24.622Z,11.3
2018-10-01T08:08:25.184Z,11.3
2018-10-01T08:09:25.629Z,11.2
2018-10-01T08:10:26.039Z,11.2
2018-10-01T08:11:25.951Z,11.2
2018-10-01T08:12:25.869Z,11.2
2018-10-01T08:13:25.770Z,11.2
2018-10-01T08:14:25.787Z,11.3
2018-10-01T08:15:26.095Z,11.2
2018-10-01T08:16:26.007Z,11.2
2018-10-01T08:17:25.941Z,11.2
2018-10-01T08:18:26.276Z,11.2
2018-10-01T08:19:26.189Z,11.2
2018-10-01T08:20:26.261Z,11.2
2018-10-01T08:21:26.368Z,11.2
2018-10-01T08:22:26.300Z,11.2
2018-10-01T08:23:26.361Z,11.3
2018-10-01T08:24:26.544Z,11.3
2018-10-01T08:25:26.449Z,11.3
2018-10-01T08:26:26.556Z,11.3
2018-10-01T08:27:26.595Z,11.3
2018-10-01T08:28:26.945Z,11.3
2018-10-01T08:29:27.045Z,11.3
2018-10-01T08:30:27.139Z,11.3
2018-10-01T08:31:27.075Z,11.3
2018-10-01T08:32:27.082Z,11.4
2018-10-01T08:33:27.238Z,11.4
2018-10-01T08:34:27.147Z,11.3
2018-10-01T08:35:27.249Z,11.3
2018-10-01T08:36:27.452Z,11.3
2018-10-01T08:37:27.364Z,11.3
2018-10-01T08:38:28.436Z,11.3
2018-10-01T08:39:28.662Z,11.3
2018-10-01T08:40:28.580Z,11.3
2018-10-01T08:41:28.771Z,11.3
2018-10-01T08:42:29.042Z,11.2
2018-10-01T08:43:28.964Z,11.2
2018-10-01T08:44:29.146Z,11.2
2018-10-01T08:45:29.354Z,11.2
2018-10-01T08:46:29.245Z,11.2
2018-10-01T08:47:29.283Z,11.2
2018-10-01T08:48:29.903Z,11.2
2018-10-01T08:49:29.817Z,11.2
2018-10-01T08:50:29.918Z,11.2
2018-10-01T08:51:30.254Z,11.2
2018-10-01T08:52:30.224Z,11.2
2018-10-01T08:53:30.415Z,11.1
2018-10-01T08:54:30.676Z,11.1
2018-10-01T08:55:30.607Z,11.1
2018-10-01T08:56:30.708Z,11.1
2018-10-01T08:57:30.884Z,11.1
2018-10-01T08:58:31.247Z,11.1
2018-10-01T08:59:31.363Z,11.1
2018-10-01T09:00:31.772Z,11.1
2018-10-01T09:01:31.676Z,10.9
2018-10-01T09:02:31.797Z,10.8
2018-10-01T09:03:32.203Z,10.7
2018-10-01T09:04:32.152Z,10.6
2018-10-01T09:05:32.380Z,10.4
2018-10-01T09:06:32.598Z,10.4
2018-10-01T09:07:32.520Z,10.2
2018-10-01T09:08:33.463Z,10.1
2018-10-01T09:09:33.791Z,9.7
2018-10-01T09:10:33.700Z,9.7
2018-10-01T09:11:33.907Z,9.6
2018-10-01T09:12:34.156Z,9.6
2018-10-01T09:13:34.093Z,9.7
2018-10-01T09:14:34.473Z,9.7
2018-10-01T09:15:34.835Z,9.8
2018-10-01T09:16:34.751Z,9.9
2018-10-01T09:17:35.049Z,9.9
2018-10-01T09:38:35.644Z,10.4
2018-10-01T09:39:36.126Z,10.3
2018-10-01T09:40:36.312Z,10.3
2018-10-01T09:41:36.701Z,10.3
2018-10-01T09:42:36.605Z,10.2
2018-10-01T09:43:36.523Z,10
2018-10-01T09:44:36.666Z,10
2018-10-01T09:45:37.129Z,9.9
2018-10-01T09:46:37.495Z,9.9
2018-10-01T09:47:37.817Z,9.9
2018-10-01T09:58:38.015Z,10
2018-10-01T09:59:38.310Z,10
2018-10-01T10:00:38.212Z,10
2018-10-01T10:01:38.134Z,10
2018-10-01T10:02:38.327Z,10
2018-10-01T10:03:38.749Z,10
2018-10-01T10:04:39.211Z,10
2018-10-01T10:05:39.948Z,9.9
2018-10-01T10:06:39.879Z,9.9
2018-10-01T10:07:39.770Z,9.9
2018-10-01T10:08:41.353Z,9.8
2018-10-01T10:09:41.711Z,9.8
2018-10-01T10:10:41.624Z,9.8
2018-10-01T10:11:41.576Z,9.8
2018-10-01T10:12:41.499Z,9.8
2018-10-01T10:13:41.407Z,9.8
2018-10-01T10:14:41.763Z,9.8
2018-10-01T10:15:42.055Z,9.8
2018-10-01T10:16:42.470Z,9.7
2018-10-01T10:17:43.093Z,9.7
2018-10-01T10:18:47.378Z,9.7
2018-10-01T10:19:47.290Z,9.6
2018-10-01T10:20:47.188Z,9.4
2018-10-01T10:21:47.122Z,9.6
2018-10-01T10:22:47.260Z,9.7
2018-10-01T10:23:47.166Z,9.7
2018-10-01T10:24:47.081Z,9.7
2018-10-01T10:25:46.996Z,9.6
2018-10-01T10:26:47.134Z,9.6
2018-10-01T10:27:47.072Z,9.6
2018-10-01T10:28:47.602Z,9.7
2018-10-01T10:29:47.517Z,9.7
2018-10-01T10:30:47.419Z,9.7
2018-10-01T10:31:47.321Z,9.7
2018-10-01T10:32:47.229Z,9.6
2018-10-01T10:33:47.167Z,9.5
2018-10-01T10:34:47.064Z,9.4
2018-10-01T10:35:46.987Z,9.4
2018-10-01T10:36:47.129Z,9.3
2018-10-01T10:37:47.034Z,9.4
2018-10-01T10:38:47.456Z,9.4
2018-10-01T10:39:47.360Z,9.3
2018-10-01T10:40:47.267Z,9.3
2018-10-01T10:41:47.703Z,9.3
2018-10-01T10:42:47.998Z,9.4
2018-10-01T10:43:47.920Z,9.4
2018-10-01T10:44:47.837Z,9.4
2018-10-01T10:45:47.755Z,9.4
2018-10-01T10:46:47.676Z,9.5
2018-10-01T10:47:47.599Z,9.5
2018-10-01T11:08:48.453Z,10.1
2018-10-01T11:09:48.383Z,10
2018-10-01T11:10:48.293Z,9.9
2018-10-01T11:11:48.214Z,9.9
2018-10-01T11:12:48.124Z,9.8
2018-10-01T11:13:48.156Z,9.8
2018-10-01T11:14:49.027Z,9.7
2018-10-01T11:15:49.772Z,9.6
2018-10-01T11:16:49.912Z,9.5
2018-10-01T11:17:49.887Z,9.5
2018-10-01T11:18:51.791Z,9.5
2018-10-01T11:19:53.046Z,9.4
2018-10-01T11:20:53.587Z,9.5
2018-10-01T11:21:54.153Z,9.4
2018-10-01T11:22:54.594Z,9.4
2018-10-01T11:23:54.614Z,9.4
2018-10-01T11:24:54.596Z,9.5
2018-10-01T11:25:54.510Z,9.4
2018-10-01T11:26:54.456Z,9.4
2018-10-01T11:27:55.167Z,9.4
2018-10-01T11:38:56.853Z,9.8
2018-10-01T11:39:56.866Z,9.7
2018-10-01T11:40:56.790Z,9.6
2018-10-01T11:41:56.717Z,9.6
2018-10-01T11:42:56.717Z,9.5
2018-10-01T11:43:56.617Z,9.6
2018-10-01T11:44:56.855Z,9.5
2018-10-01T11:45:56.895Z,9.4
2018-10-01T11:46:56.830Z,9.4
2018-10-01T11:47:56.787Z,9.4
2018-10-01T11:48:57.175Z,9.4
2018-10-01T11:49:57.139Z,9.4
2018-10-01T11:50:57.159Z,9.4
2018-10-01T11:51:57.458Z,9.4
2018-10-01T11:52:57.375Z,9.5
2018-10-01T11:53:57.282Z,9.4
2018-10-01T11:54:57.183Z,9.4
2018-10-01T11:55:57.139Z,9.4
2018-10-01T11:56:57.212Z,9.3
2018-10-01T11:57:57.298Z,9.3
2018-10-01T11:58:57.641Z,9.3
2018-10-01T11:59:57.549Z,9.3
2018-10-01T12:00:57.678Z,9.2
2018-10-01T12:01:57.620Z,9.2
2018-10-01T12:02:57.686Z,9.2
2018-10-01T12:03:57.996Z,9.2
2018-10-01T12:04:58.448Z,9.3
2018-10-01T12:05:58.353Z,9.4
2018-10-01T12:06:58.311Z,9.4
2018-10-01T12:07:58.209Z,9.3
2018-10-01T12:18:58.950Z,9.9
2018-10-01T12:19:58.927Z,9.9
2018-10-01T12:20:58.992Z,9.7
2018-10-01T12:21:59.295Z,9.5
2018-10-01T12:22:59.393Z,9.5
2018-10-01T12:23:59.320Z,9.6
2018-10-01T12:24:59.238Z,9.6
2018-10-01T12:25:59.158Z,9.7
2018-10-01T12:26:59.250Z,9.7
2018-10-01T12:27:59.315Z,9.7
2018-10-01T12:28:59.810Z,9.7
2018-10-01T12:29:59.971Z,9.7
2018-10-01T12:30:59.885Z,9.7
2018-10-01T12:31:59.787Z,9.6
2018-10-01T12:32:59.748Z,9.7
2018-10-01T12:33:59.873Z,9.7
2018-10-01T12:34:59.939Z,9.6
2018-10-01T12:36:00.095Z,9.7
2018-10-01T12:37:00.024Z,9.8
2018-10-01T12:37:59.936Z,9.8
2018-10-01T12:39:00.636Z,9.8
2018-10-01T12:40:00.799Z,9.8
2018-10-01T12:41:00.756Z,9.8
2018-10-01T12:42:00.664Z,9.7
2018-10-01T12:43:01.058Z,9.7
2018-10-01T12:44:01.737Z,9.7
2018-10-01T12:45:01.951Z,9.7
2018-10-01T12:46:02.068Z,9.8
2018-10-01T12:47:01.985Z,9.8
2018-10-01T12:48:01.919Z,9.8
2018-10-01T12:49:02.388Z,9.7
2018-10-01T12:50:02.357Z,9.7
2018-10-01T12:51:02.418Z,9.6
2018-10-01T12:52:02.539Z,9.6
2018-10-01T12:53:02.448Z,9.5
2018-10-01T12:54:02.348Z,9.4
2018-10-01T12:55:02.305Z,9.4
2018-10-01T12:56:02.211Z,9.3
2018-10-01T12:57:02.159Z,9.3
2018-10-01T12:58:02.271Z,9.3
2018-10-01T12:59:02.621Z,9.4
2018-10-01T13:00:02.592Z,9.4
2018-10-01T13:01:02.519Z,9.4
2018-10-01T13:02:02.436Z,9.4
2018-10-01T13:03:02.363Z,9.4
2018-10-01T13:04:02.287Z,9.4
2018-10-01T13:05:02.530Z,9.3
2018-10-01T13:06:03.146Z,9.3
2018-10-01T13:07:03.236Z,9.3
2018-10-01T13:08:03.159Z,9.3
2018-10-01T13:09:03.577Z,9.4
2018-10-01T13:10:03.532Z,9.4
2018-10-01T13:11:03.473Z,9.4
2018-10-01T13:12:04.447Z,9.4
2018-10-01T13:13:04.803Z,9.4
2018-10-01T13:14:04.736Z,9.4
2018-10-01T13:15:04.663Z,9.4
2018-10-01T13:16:04.624Z,9.4
2018-10-01T13:17:04.529Z,9.5
2018-10-01T13:18:04.613Z,9.4
2018-10-01T13:49:07.598Z,10.7
2018-10-01T13:50:07.562Z,10.6
2018-10-01T13:51:07.478Z,10.4
2018-10-01T13:52:07.652Z,10.4
2018-10-01T13:53:07.957Z,10.4
2018-10-01T13:54:08.276Z,10.4
2018-10-01T13:55:08.487Z,10.3
2018-10-01T13:56:08.704Z,10.4
2018-10-01T13:57:08.801Z,10.3
2018-10-01T13:58:08.978Z,10.3
2018-10-01T13:59:09.931Z,10.2
2018-10-01T14:00:09.872Z,10.2
2018-10-01T14:01:09.809Z,10.2
2018-10-01T14:02:10.266Z,10.2
2018-10-01T14:03:10.390Z,10.2
2018-10-01T14:04:10.336Z,10.2
2018-10-01T14:05:10.277Z,10.1
2018-10-01T14:06:10.422Z,10.1
2018-10-01T14:07:10.729Z,10.2
2018-10-01T14:08:11.024Z,10.1
2018-10-01T14:09:11.613Z,10.2
2018-10-01T14:10:11.593Z,10.2
2018-10-01T14:11:11.541Z,10.1
2018-10-01T14:12:11.491Z,10
2018-10-01T14:13:11.890Z,10.1
2018-10-01T14:14:12.255Z,10.2
2018-10-01T14:15:12.210Z,10.1
2018-10-01T14:16:12.226Z,10.1
2018-10-01T14:17:12.180Z,10.1
2018-10-01T14:18:12.130Z,10.1
2018-10-01T14:19:12.924Z,10.1
2018-10-01T14:20:13.706Z,10.1
2018-10-01T14:21:14.279Z,10
2018-10-01T14:22:15.141Z,10
2018-10-01T14:23:15.102Z,9.9
2018-10-01T14:24:15.045Z,9.9
2018-10-01T14:25:15.197Z,9.9
2018-10-01T14:26:15.493Z,9.9
2018-10-01T14:27:15.424Z,9.9
2018-10-01T14:28:15.358Z,9.9
2018-10-01T14:29:15.829Z,10
2018-10-01T14:30:15.926Z,9.9
2018-10-01T14:31:15.909Z,9.9
2018-10-01T14:32:15.848Z,9.9
2018-10-01T14:33:15.759Z,9.8
2018-10-01T14:34:15.686Z,9.8
2018-10-01T14:35:15.618Z,9.8
2018-10-01T14:36:16.236Z,9.8
2018-10-01T14:37:16.400Z,9.8
2018-10-01T14:38:16.311Z,9.7
2018-10-01T14:49:17.281Z,10
2018-10-01T14:50:17.185Z,10
2018-10-01T14:51:17.385Z,9.9
2018-10-01T14:52:17.639Z,9.9
2018-10-01T14:53:17.544Z,9.9
2018-10-01T14:54:17.551Z,9.9
2018-10-01T14:55:17.611Z,9.9
2018-10-01T14:56:17.529Z,9.9
2018-10-01T14:57:17.434Z,9.8
2018-10-01T14:58:17.339Z,9.9
2018-10-01T14:59:17.692Z,9.9
2018-10-01T15:00:18.080Z,9.9
2018-10-01T15:01:18.687Z,9.9
2018-10-01T15:02:18.587Z,9.8
2018-10-01T15:03:18.501Z,9.8
2018-10-01T15:04:18.407Z,9.8
2018-10-01T15:05:18.305Z,9.8
2018-10-01T15:06:18.576Z,9.7
2018-10-01T15:07:18.588Z,9.8
2018-10-01T15:08:18.503Z,9.7
2018-10-01T15:09:18.849Z,9.7
2018-10-01T15:10:18.757Z,9.6
2018-10-01T15:11:18.687Z,9.7
2018-10-01T15:12:18.971Z,9.7
2018-10-01T15:13:19.044Z,9.7
2018-10-01T15:14:18.945Z,9.7
2018-10-01T15:15:18.855Z,9.7
2018-10-01T15:16:19.118Z,9.8
2018-10-01T15:17:19.305Z,9.7
2018-10-01T15:18:19.317Z,9.6
2018-10-01T15:39:17.623Z,9.3
2018-10-01T15:40:17.518Z,9.3
2018-10-01T15:41:17.434Z,9.3
2018-10-01T15:42:17.331Z,9.3
2018-10-01T15:43:17.236Z,9.3
2018-10-01T15:44:17.383Z,9.2
2018-10-01T15:45:17.597Z,9.1
2018-10-01T15:46:17.509Z,9
2018-10-01T15:47:17.402Z,8.9
2018-10-01T15:48:17.309Z,8.8
2018-10-01T15:49:17.683Z,8.9
2018-10-01T15:50:17.588Z,9
2018-10-01T15:51:17.509Z,9
2018-10-01T15:52:17.415Z,9
2018-10-01T15:53:17.323Z,9
2018-10-01T15:54:17.266Z,9
2018-10-01T15:55:17.180Z,9
2018-10-01T15:56:17.091Z,9
2018-10-01T15:57:16.992Z,9
2018-10-01T15:58:16.909Z,9
2018-10-01T15:59:17.264Z,9
2018-10-01T16:00:17.189Z,9
2018-10-01T16:01:17.101Z,8.9
2018-10-01T16:02:17.020Z,8.9
2018-10-01T16:03:17.134Z,8.8
2018-10-01T16:04:17.289Z,8.7
2018-10-01T16:05:17.224Z,8.6
2018-10-01T16:06:17.158Z,8.5
2018-10-01T16:07:17.065Z,8.5
2018-10-01T16:08:16.967Z,8.5
2018-10-01T16:09:17.296Z,8.5
2018-10-01T16:10:17.231Z,8.6
2018-10-01T16:11:17.411Z,8.6
2018-10-01T16:12:17.908Z,8.7
2018-10-01T16:13:17.804Z,8.6
2018-10-01T16:14:17.730Z,8.7
2018-10-01T16:15:17.640Z,8.6
2018-10-01T16:16:17.583Z,8.6
2018-10-01T16:17:17.484Z,8.6
2018-10-01T16:18:17.766Z,8.6
2018-10-01T16:29:16.790Z,8.5
2018-10-01T16:30:16.705Z,8.5
2018-10-01T16:31:16.715Z,8.3
2018-10-01T16:32:16.835Z,8.3
2018-10-01T16:33:16.762Z,8.3
2018-10-01T16:34:16.666Z,8.2
2018-10-01T16:35:16.578Z,8.2
2018-10-01T16:36:16.494Z,8.1
2018-10-01T16:37:16.393Z,8.1
2018-10-01T16:38:16.306Z,8.1
2018-10-01T16:59:14.011Z,8.5
2018-10-01T17:00:13.922Z,8.5
2018-10-01T17:01:13.841Z,8.4
2018-10-01T17:02:13.765Z,8.4
2018-10-01T17:03:13.676Z,8.3
2018-10-01T17:04:13.604Z,8.3
2018-10-01T17:05:13.517Z,8.3
2018-10-01T17:06:13.422Z,8.2
2018-10-01T17:07:13.331Z,8.1
2018-10-01T17:08:13.234Z,8.1
2018-10-01T17:19:15.063Z,7.9
2018-10-01T17:20:15.217Z,7.9
2018-10-01T17:21:15.122Z,7.9
2018-10-01T17:22:15.050Z,8
2018-10-01T17:23:14.954Z,8
2018-10-01T17:24:14.887Z,7.9
2018-10-01T17:25:14.804Z,7.8
2018-10-01T17:26:14.720Z,7.8
2018-10-01T17:27:14.643Z,7.8
2018-10-01T17:28:14.856Z,7.9
2018-10-01T17:29:15.951Z,8
2018-10-01T17:30:16.112Z,8
2018-10-01T17:31:16.653Z,7.9
2018-10-01T17:32:16.801Z,7.9
2018-10-01T17:33:16.710Z,7.9
2018-10-01T17:34:16.654Z,7.8
2018-10-01T17:35:16.581Z,7.7
2018-10-01T17:36:16.752Z,7.8
2018-10-01T17:37:16.658Z,7.7
2018-10-01T17:38:16.763Z,7.8
2018-10-01T17:39:17.237Z,7.8
2018-10-01T17:40:17.148Z,7.7
2018-10-01T17:41:17.056Z,7.6
2018-10-01T17:42:17.187Z,7.7
2018-10-01T17:43:17.108Z,7.6
2018-10-01T17:44:17.038Z,7.6
2018-10-01T17:45:17.949Z,7.6
2018-10-01T17:46:17.870Z,7.6
2018-10-01T17:47:17.774Z,7.4
2018-10-01T17:48:17.672Z,7.4
2018-10-01T17:59:17.235Z,7.7
2018-10-01T18:00:17.405Z,7.7
2018-10-01T18:01:17.840Z,7.6
2018-10-01T18:02:17.749Z,7.6
2018-10-01T18:03:17.664Z,7.5
2018-10-01T18:04:17.830Z,7.5
2018-10-01T18:05:18.130Z,7.4
2018-10-01T18:06:18.466Z,7.4
2018-10-01T18:07:18.682Z,7.4
2018-10-01T18:08:18.593Z,7.4
2018-10-01T18:09:18.994Z,7.4
2018-10-01T18:10:18.910Z,7.4
2018-10-01T18:11:18.820Z,7.3
2018-10-01T18:12:19.018Z,7.2